createdAt,value
2023-01-18T00:00:47.282Z,1.10
2023-01-18T00:03:14.716Z,1.10
2023-01-18T00:05:42.778Z,1.10
2023-01-18T00:08:16.516Z,1.20
2023-01-18T00:10:44.076Z,1.20
2023-01-18T00:13:11.367Z,1.20
2023-01-18T00:15:39.375Z,1.20
2023-01-18T00:18:06.285Z,1.30
2023-01-18T00:20:33.223Z,1.40
2023-01-18T00:23:01.888Z,1.40
2023-01-18T00:25:29.566Z,1.40
2023-01-18T00:27:57.037Z,1.40
2023-01-18T00:30:26.005Z,1.40
2023-01-18T00:32:56.118Z,1.50
2023-01-18T00:35:24.003Z,1.50
2023-01-18T00:37:51.828Z,1.50
2023-01-18T00:40:20.169Z,1.50
2023-01-18T00:43:05.740Z,1.50
2023-01-18T00:45:32.718Z,1.50
2023-01-18T00:47:59.662Z,1.50
2023-01-18T00:50:26.513Z,1.50
2023-01-18T00:52:57.090Z,1.50
2023-01-18T00:55:24.608Z,1.50
2023-01-18T00:57:51.531Z,1.50
2023-01-18T01:00:19.152Z,1.50
2023-01-18T01:02:46.056Z,1.50
2023-01-18T01:05:42.555Z,1.50
2023-01-18T01:08:17.439Z,1.60
2023-01-18T01:10:50.080Z,1.50
2023-01-18T01:13:40.774Z,1.60
2023-01-18T01:16:27.942Z,1.60
2023-01-18T01:19:14.045Z,1.60
2023-01-18T01:22:00.127Z,1.60
2023-01-18T01:24:45.695Z,1.60
2023-01-18T01:27:13.904Z,1.60
2023-01-18T01:29:40.918Z,1.60
2023-01-18T01:32:08.072Z,1.60
2023-01-18T01:34:36.042Z,1.60
2023-01-18T01:37:03.883Z,1.60
2023-01-18T01:39:31.020Z,1.60
2023-01-18T01:41:58.052Z,1.60
2023-01-18T01:44:24.822Z,1.60
2023-01-18T01:46:57.209Z,1.60
2023-01-18T01:49:33.430Z,1.60
2023-01-18T01:52:10.483Z,1.60
2023-01-18T01:54:50.167Z,1.60
2023-01-18T01:57:23.150Z,1.70
2023-01-18T01:59:59.010Z,1.70
2023-01-18T02:02:26.032Z,1.70
2023-01-18T02:04:55.303Z,1.70
2023-01-18T02:07:24.038Z,1.70
2023-01-18T02:09:53.144Z,1.70
2023-01-18T02:12:20.341Z,1.70
2023-01-18T02:14:47.690Z,1.70
2023-01-18T02:17:56.327Z,1.70
2023-01-18T02:20:50.943Z,1.70
2023-01-18T02:23:43.749Z,1.80
2023-01-18T02:26:39.200Z,1.80
2023-01-18T02:29:18.738Z,1.80
2023-01-18T02:32:04.864Z,1.80
2023-01-18T02:34:43.030Z,1.80
2023-01-18T02:37:22.115Z,1.80
2023-01-18T02:39:58.738Z,1.90
2023-01-18T02:42:47.153Z,1.90
2023-01-18T02:45:37.171Z,1.90
2023-01-18T02:48:05.428Z,1.90
2023-01-18T02:50:32.244Z,1.90
2023-01-18T02:52:59.282Z,1.90
2023-01-18T02:55:26.197Z,1.90
2023-01-18T02:58:02.123Z,2.00
2023-01-18T03:00:29.853Z,1.90
2023-01-18T03:02:58.615Z,2.00
2023-01-18T03:05:27.755Z,2.00
2023-01-18T03:08:13.991Z,1.90
2023-01-18T03:10:51.813Z,1.90
2023-01-18T03:13:35.028Z,1.90
2023-01-18T03:16:09.610Z,1.90
2023-01-18T03:18:39.261Z,1.90
2023-01-18T03:21:08.435Z,1.90
2023-01-18T03:23:40.099Z,1.90
2023-01-18T03:26:12.005Z,1.90
2023-01-18T03:29:03.563Z,1.90
2023-01-18T03:32:03.300Z,1.90
2023-01-18T03:34:42.744Z,2.00
2023-01-18T03:37:15.185Z,2.00
2023-01-18T03:39:53.797Z,2.00
2023-01-18T03:42:39.723Z,2.00
2023-01-18T03:45:15.883Z,2.10
2023-01-18T03:47:42.803Z,2.10
2023-01-18T03:50:10.794Z,2.10
2023-01-18T03:52:42.634Z,2.10
2023-01-18T03:55:22.361Z,2.10
2023-01-18T03:58:05.720Z,2.10
2023-01-18T04:00:32.648Z,2.10
2023-01-18T04:03:00.312Z,2.10
2023-01-18T04:05:27.413Z,2.10
2023-01-18T04:07:54.219Z,2.20
2023-01-18T04:10:21.051Z,2.20
2023-01-18T04:12:47.883Z,2.10
2023-01-18T04:15:14.926Z,2.20
2023-01-18T04:17:41.747Z,2.10
2023-01-18T04:20:09.485Z,2.10
2023-01-18T04:22:36.381Z,2.20
2023-01-18T04:25:03.565Z,2.10
2023-01-18T04:27:30.385Z,2.20
2023-01-18T04:29:58.602Z,2.10
2023-01-18T04:32:25.485Z,2.10
2023-01-18T04:34:53.599Z,2.10
2023-01-18T04:37:20.413Z,2.10
2023-01-18T04:39:47.734Z,2.10
2023-01-18T04:42:14.590Z,2.10
2023-01-18T04:44:41.384Z,2.10
2023-01-18T04:47:08.249Z,2.10
2023-01-18T04:49:35.114Z,2.10
2023-01-18T04:52:01.933Z,2.10
2023-01-18T04:54:28.793Z,2.10
2023-01-18T04:56:55.600Z,2.10
2023-01-18T04:59:22.394Z,2.10
2023-01-18T05:01:49.292Z,2.10
2023-01-18T05:04:16.370Z,2.10
2023-01-18T05:06:44.139Z,2.10
2023-01-18T05:09:13.992Z,2.10
2023-01-18T05:11:41.638Z,2.10
2023-01-18T05:14:09.336Z,2.10
2023-01-18T05:16:36.415Z,2.10
2023-01-18T05:19:03.321Z,2.10
2023-01-18T05:21:30.142Z,2.10
2023-01-18T05:23:56.998Z,2.10
2023-01-18T05:26:24.623Z,2.10
2023-01-18T05:28:57.359Z,2.10
2023-01-18T05:31:24.759Z,2.10
2023-01-18T05:33:51.699Z,2.10
2023-01-18T05:36:18.699Z,2.10
2023-01-18T05:38:46.847Z,2.10
2023-01-18T05:41:13.700Z,2.10
2023-01-18T05:43:40.614Z,2.10
2023-01-18T05:46:07.936Z,2.00
2023-01-18T05:48:34.891Z,2.00
2023-01-18T05:51:08.807Z,2.00
2023-01-18T05:53:35.676Z,2.00
2023-01-18T05:56:05.333Z,2.00
2023-01-18T05:58:32.596Z,2.00
2023-01-18T06:00:59.551Z,2.00
2023-01-18T06:03:26.695Z,2.00
2023-01-18T06:05:53.687Z,2.00
2023-01-18T06:08:21.487Z,2.00
2023-01-18T06:10:55.925Z,2.10
2023-01-18T06:13:24.105Z,2.10
2023-01-18T06:15:52.015Z,2.00
2023-01-18T06:18:18.990Z,2.10
2023-01-18T06:20:46.153Z,2.10
2023-01-18T06:23:13.046Z,2.10
2023-01-18T06:25:39.913Z,2.10
2023-01-18T06:28:06.822Z,2.10
2023-01-18T06:30:34.613Z,2.10
2023-01-18T06:33:06.751Z,2.10
2023-01-18T06:35:34.597Z,2.10
2023-01-18T06:38:02.526Z,2.00
2023-01-18T06:40:29.632Z,2.10
2023-01-18T06:42:57.293Z,2.10
2023-01-18T06:45:25.966Z,2.10
2023-01-18T06:47:52.929Z,2.10
2023-01-18T06:50:19.885Z,2.10
2023-01-18T06:52:46.913Z,2.10
2023-01-18T06:55:15.107Z,2.10
2023-01-18T06:57:42.303Z,2.10
2023-01-18T07:00:10.565Z,2.10
2023-01-18T07:02:37.517Z,2.10
2023-01-18T07:05:04.988Z,2.10
2023-01-18T07:07:32.198Z,2.10
2023-01-18T07:09:59.007Z,2.10
2023-01-18T07:12:25.955Z,2.10
2023-01-18T07:14:52.752Z,2.10
2023-01-18T07:17:19.791Z,2.10
2023-01-18T07:19:46.607Z,2.10
2023-01-18T07:22:13.590Z,2.10
2023-01-18T07:24:40.481Z,2.10
2023-01-18T07:27:07.315Z,2.10
2023-01-18T07:29:34.171Z,2.10
2023-01-18T07:32:01.315Z,2.10
2023-01-18T07:34:28.499Z,2.20
2023-01-18T07:36:55.321Z,2.20
2023-01-18T07:39:22.125Z,2.20
2023-01-18T07:41:49.020Z,2.20
2023-01-18T07:44:15.896Z,2.20
2023-01-18T07:46:43.358Z,2.30
2023-01-18T07:49:10.295Z,2.30
2023-01-18T07:51:38.470Z,2.30
2023-01-18T07:54:05.556Z,2.30
2023-01-18T07:56:32.697Z,2.30
2023-01-18T07:58:59.686Z,2.30
2023-01-18T08:01:26.736Z,2.40
2023-01-18T08:03:54.810Z,2.40
2023-01-18T08:06:27.668Z,2.40
2023-01-18T08:08:56.079Z,2.40
2023-01-18T08:11:23.159Z,2.40
2023-01-18T08:13:50.723Z,2.40
2023-01-18T08:16:18.544Z,2.40
2023-01-18T08:18:45.999Z,2.50
2023-01-18T08:21:13.559Z,2.40
2023-01-18T08:23:41.069Z,2.50
2023-01-18T08:26:09.771Z,2.50
2023-01-18T08:28:36.975Z,2.50
2023-01-18T08:31:15.544Z,2.60
2023-01-18T08:33:46.068Z,2.60
2023-01-18T08:36:18.756Z,2.60
2023-01-18T08:38:57.067Z,2.60
2023-01-18T08:41:28.581Z,2.70
2023-01-18T08:43:56.423Z,2.70
2023-01-18T08:46:23.853Z,2.70
2023-01-18T08:48:59.390Z,2.70
2023-01-18T08:51:26.371Z,2.70
2023-01-18T08:53:56.718Z,2.70
2023-01-18T08:56:23.577Z,2.70
2023-01-18T08:58:52.288Z,2.70
2023-01-18T09:01:19.377Z,2.70
2023-01-18T09:03:48.092Z,2.70
2023-01-18T09:06:16.850Z,2.70
2023-01-18T09:08:43.752Z,2.70
2023-01-18T09:11:10.817Z,2.70
2023-01-18T09:13:58.547Z,2.80
2023-01-18T09:16:26.891Z,2.70
2023-01-18T09:18:55.977Z,2.80
2023-01-18T09:21:23.217Z,2.80
2023-01-18T09:23:51.001Z,2.80
2023-01-18T09:26:20.773Z,2.80
2023-01-18T09:28:52.313Z,2.80
2023-01-18T09:31:21.044Z,2.90
2023-01-18T09:33:53.177Z,2.90
2023-01-18T09:36:23.947Z,2.80
2023-01-18T09:38:51.009Z,2.90
2023-01-18T09:41:33.240Z,2.90
2023-01-18T09:44:09.675Z,2.90
2023-01-18T09:46:39.552Z,3.00
2023-01-18T09:49:14.101Z,3.00
2023-01-18T09:51:59.693Z,3.00
2023-01-18T09:54:34.840Z,3.00
2023-01-18T09:57:19.576Z,3.00
2023-01-18T09:59:55.968Z,3.10
2023-01-18T10:02:29.329Z,3.10
2023-01-18T10:05:00.887Z,3.10
2023-01-18T10:07:30.813Z,3.20
2023-01-18T10:10:00.707Z,3.20
2023-01-18T10:12:39.394Z,3.30
2023-01-18T10:15:22.286Z,3.30
2023-01-18T10:17:53.763Z,3.30
2023-01-18T10:20:33.978Z,3.40
2023-01-18T10:23:32.619Z,3.40
2023-01-18T10:26:07.591Z,3.40
2023-01-18T10:29:01.937Z,3.40
2023-01-18T10:32:00.661Z,3.50
2023-01-18T10:34:33.350Z,3.40
2023-01-18T10:37:14.611Z,3.40
2023-01-18T10:39:46.647Z,3.40
2023-01-18T10:42:23.249Z,3.40
2023-01-18T10:44:50.414Z,3.40
2023-01-18T10:47:18.519Z,3.40
2023-01-18T10:49:48.548Z,3.40
2023-01-18T10:52:25.723Z,3.40
2023-01-18T10:54:58.314Z,3.40
2023-01-18T10:57:48.781Z,3.40
2023-01-18T11:00:21.851Z,3.40
2023-01-18T11:02:51.948Z,3.40
2023-01-18T11:05:33.021Z,3.40
2023-01-18T11:08:25.439Z,3.50
2023-01-18T11:11:01.624Z,3.50
2023-01-18T11:13:32.968Z,3.50
2023-01-18T11:16:15.712Z,3.50
2023-01-18T11:19:00.649Z,3.50
2023-01-18T11:21:41.084Z,3.50
2023-01-18T11:24:29.687Z,3.40
2023-01-18T11:27:02.676Z,3.50
2023-01-18T11:29:35.894Z,3.50
2023-01-18T11:32:06.952Z,3.50
2023-01-18T11:34:43.838Z,3.50
2023-01-18T11:37:35.977Z,3.50
2023-01-18T11:40:28.133Z,3.60
2023-01-18T11:43:10.728Z,3.60
2023-01-18T11:45:59.690Z,3.60
2023-01-18T11:48:32.939Z,3.60
2023-01-18T11:51:31.062Z,3.60
2023-01-18T11:54:26.770Z,3.70
2023-01-18T11:56:56.313Z,3.70
2023-01-18T11:59:29.778Z,3.70
2023-01-18T12:02:34.417Z,3.70
2023-01-18T12:05:13.433Z,3.70
2023-01-18T12:08:05.158Z,3.60
2023-01-18T12:10:46.390Z,3.60
2023-01-18T12:13:22.124Z,3.60
2023-01-18T12:16:01.155Z,3.60
2023-01-18T12:18:33.560Z,3.60
2023-01-18T12:21:10.647Z,3.60
2023-01-18T12:24:19.086Z,3.50
2023-01-18T12:27:16.748Z,3.50
2023-01-18T12:29:52.596Z,3.50
2023-01-18T12:32:40.891Z,3.50
2023-01-18T12:35:24.094Z,3.50
2023-01-18T12:38:13.777Z,3.50
2023-01-18T12:40:46.454Z,3.50
2023-01-18T12:43:41.196Z,3.50
2023-01-18T12:46:12.505Z,3.50
2023-01-18T12:48:53.174Z,3.50
2023-01-18T12:51:23.978Z,3.50
2023-01-18T12:53:54.659Z,3.50
2023-01-18T12:56:39.379Z,3.50
2023-01-18T12:59:11.528Z,3.60
2023-01-18T13:01:47.511Z,3.50
2023-01-18T13:04:36.420Z,3.50
2023-01-18T13:07:11.244Z,3.50
2023-01-18T13:09:43.969Z,3.50
2023-01-18T13:12:11.732Z,3.50
2023-01-18T13:15:07.862Z,3.50
2023-01-18T13:17:52.765Z,3.50
2023-01-18T13:20:29.887Z,3.50
2023-01-18T13:23:27.546Z,3.60
2023-01-18T13:25:54.720Z,3.60
2023-01-18T13:28:24.942Z,3.60
2023-01-18T13:31:00.752Z,3.60
2023-01-18T13:33:31.417Z,3.60
2023-01-18T13:36:02.301Z,3.70
2023-01-18T13:38:40.997Z,3.60
2023-01-18T13:41:13.389Z,3.60
2023-01-18T13:43:41.452Z,3.60
2023-01-18T13:46:08.332Z,3.60
2023-01-18T13:48:59.136Z,3.60
2023-01-18T13:51:41.247Z,3.60
2023-01-18T13:54:10.562Z,3.60
2023-01-18T13:56:39.394Z,3.60
2023-01-18T13:59:13.192Z,3.60
2023-01-18T14:01:44.138Z,3.60
2023-01-18T14:04:33.271Z,3.50
2023-01-18T14:07:04.093Z,3.50
2023-01-18T14:09:43.396Z,3.50
2023-01-18T14:12:11.876Z,3.50
2023-01-18T14:14:56.929Z,3.50
2023-01-18T14:17:25.604Z,3.50
2023-01-18T14:20:29.379Z,3.50
2023-01-18T14:23:25.160Z,3.50
2023-01-18T14:26:01.113Z,3.50
2023-01-18T14:28:54.815Z,3.50
2023-01-18T14:31:29.206Z,3.50
2023-01-18T14:33:56.394Z,3.50
2023-01-18T14:36:28.619Z,3.40
2023-01-18T14:39:14.334Z,3.40
2023-01-18T14:41:44.531Z,3.40
2023-01-18T14:44:21.792Z,3.40
2023-01-18T14:46:54.441Z,3.40
2023-01-18T14:49:31.119Z,3.40
2023-01-18T14:51:59.225Z,3.40
2023-01-18T14:54:26.253Z,3.40
2023-01-18T14:57:05.788Z,3.40
2023-01-18T14:59:33.904Z,3.40
2023-01-18T15:02:13.677Z,3.40
2023-01-18T15:04:45.536Z,3.40
2023-01-18T15:07:30.785Z,3.40
2023-01-18T15:09:58.726Z,3.40
2023-01-18T15:12:31.621Z,3.40
2023-01-18T15:15:25.983Z,3.40
2023-01-18T15:17:56.588Z,3.30
2023-01-18T15:20:24.210Z,3.30
2023-01-18T15:22:53.803Z,3.30
2023-01-18T15:25:26.655Z,3.30
2023-01-18T15:27:54.004Z,3.30
2023-01-18T15:30:23.804Z,3.30
2023-01-18T15:32:54.917Z,3.30
2023-01-18T15:35:25.650Z,3.30
2023-01-18T15:37:53.276Z,3.30
2023-01-18T15:40:20.313Z,3.30
2023-01-18T15:42:48.577Z,3.20
2023-01-18T15:45:20.734Z,3.20
2023-01-18T15:47:51.092Z,3.20
2023-01-18T15:50:23.678Z,3.20
2023-01-18T15:53:02.277Z,3.20
2023-01-18T15:55:38.699Z,3.20
2023-01-18T15:58:19.686Z,3.20
2023-01-18T16:00:55.953Z,3.20
2023-01-18T16:03:30.677Z,3.20
2023-01-18T16:06:08.000Z,3.20
2023-01-18T16:08:35.489Z,3.10
2023-01-18T16:11:02.404Z,3.20
2023-01-18T16:13:35.285Z,3.10
2023-01-18T16:16:09.451Z,3.10
2023-01-18T16:18:36.401Z,3.10
2023-01-18T16:21:12.501Z,3.10
2023-01-18T16:23:44.140Z,3.10
2023-01-18T16:26:11.296Z,3.10
2023-01-18T16:28:38.182Z,3.10
2023-01-18T16:31:05.136Z,3.10
2023-01-18T16:33:32.102Z,3.10
2023-01-18T16:35:59.032Z,3.10
2023-01-18T16:38:25.974Z,3.10
2023-01-18T16:40:53.298Z,3.10
2023-01-18T16:43:27.122Z,3.10
2023-01-18T16:45:56.460Z,3.00
2023-01-18T16:48:26.174Z,3.00
2023-01-18T16:50:55.838Z,3.00
2023-01-18T16:53:23.044Z,3.00
2023-01-18T16:55:49.911Z,3.00
2023-01-18T16:58:19.012Z,3.00
2023-01-18T17:01:06.330Z,3.00
2023-01-18T17:03:36.048Z,3.00
2023-01-18T17:06:03.567Z,3.00
2023-01-18T17:08:30.378Z,3.00
2023-01-18T17:10:57.210Z,3.00
2023-01-18T17:13:24.352Z,2.90
2023-01-18T17:15:53.240Z,3.00
2023-01-18T17:18:27.878Z,3.00
2023-01-18T17:20:55.698Z,3.00
2023-01-18T17:23:22.633Z,3.00
2023-01-18T17:25:49.548Z,3.00
2023-01-18T17:28:18.363Z,3.00
2023-01-18T17:30:48.920Z,2.90
2023-01-18T17:33:18.512Z,2.90
2023-01-18T17:35:45.664Z,3.00
2023-01-18T17:38:23.302Z,2.90
2023-01-18T17:40:51.471Z,2.90
2023-01-18T17:43:28.385Z,2.90
2023-01-18T17:46:02.387Z,2.90
2023-01-18T17:48:29.403Z,2.90
2023-01-18T17:50:56.269Z,2.80
2023-01-18T17:53:23.194Z,2.80
2023-01-18T17:55:50.114Z,2.80
2023-01-18T17:58:16.977Z,2.70
2023-01-18T18:00:44.750Z,2.80
2023-01-18T18:03:11.677Z,2.80
2023-01-18T18:05:38.893Z,2.70
2023-01-18T18:08:06.109Z,2.70
2023-01-18T18:10:33.079Z,2.70
2023-01-18T18:13:00.200Z,2.70
2023-01-18T18:15:27.446Z,2.70
2023-01-18T18:17:54.415Z,2.60
2023-01-18T18:20:22.754Z,2.60
2023-01-18T18:22:50.004Z,2.60
2023-01-18T18:25:16.933Z,2.50
2023-01-18T18:27:46.764Z,2.50
2023-01-18T18:30:15.051Z,2.40
2023-01-18T18:32:41.918Z,2.40
2023-01-18T18:35:23.789Z,2.40
2023-01-18T18:37:53.796Z,2.40
2023-01-18T18:40:20.679Z,2.50
2023-01-18T18:43:00.758Z,2.50
2023-01-18T18:45:28.596Z,2.50
2023-01-18T18:47:55.454Z,2.40
2023-01-18T18:50:22.476Z,2.40
2023-01-18T18:52:49.445Z,2.40
2023-01-18T18:55:16.346Z,2.40
2023-01-18T18:57:43.176Z,2.40
2023-01-18T19:00:10.696Z,2.50
2023-01-18T19:02:37.658Z,2.40
2023-01-18T19:05:07.471Z,2.40
2023-01-18T19:07:35.108Z,2.50
2023-01-18T19:10:02.279Z,2.40
2023-01-18T19:12:29.729Z,2.50
2023-01-18T19:14:56.895Z,2.50
2023-01-18T19:17:30.272Z,2.50
2023-01-18T19:19:58.301Z,2.50
2023-01-18T19:22:25.784Z,2.50
2023-01-18T19:24:52.586Z,2.50
2023-01-18T19:27:21.242Z,2.50
2023-01-18T19:29:48.140Z,2.50
2023-01-18T19:32:15.483Z,2.50
2023-01-18T19:34:42.442Z,2.50
2023-01-18T19:37:09.372Z,2.50
2023-01-18T19:39:36.484Z,2.60
2023-01-18T19:42:03.476Z,2.60
2023-01-18T19:44:30.342Z,2.60
2023-01-18T19:46:57.411Z,2.60
2023-01-18T19:49:26.515Z,2.60
2023-01-18T19:51:54.611Z,2.60
2023-01-18T19:54:21.861Z,2.50
2023-01-18T19:56:48.771Z,2.50
2023-01-18T19:59:15.965Z,2.60
2023-01-18T20:01:43.100Z,2.50
2023-01-18T20:04:10.418Z,2.50
2023-01-18T20:06:43.281Z,2.50
2023-01-18T20:09:19.476Z,2.40
2023-01-18T20:11:48.722Z,2.40
2023-01-18T20:14:15.716Z,2.40
2023-01-18T20:16:45.755Z,2.30
2023-01-18T20:19:14.239Z,2.30
2023-01-18T20:21:41.236Z,2.30
2023-01-18T20:24:08.863Z,2.20
2023-01-18T20:26:38.137Z,2.20
2023-01-18T20:29:07.498Z,2.20
2023-01-18T20:31:39.283Z,2.10
2023-01-18T20:34:06.944Z,2.10
2023-01-18T20:36:37.501Z,2.10
2023-01-18T20:39:05.336Z,2.00
2023-01-18T20:41:32.619Z,2.00
2023-01-18T20:43:59.839Z,2.00
2023-01-18T20:46:26.724Z,2.00
2023-01-18T20:48:53.713Z,1.90
2023-01-18T20:51:20.806Z,1.90
2023-01-18T20:53:47.654Z,1.80
2023-01-18T20:56:28.331Z,1.80
2023-01-18T20:58:55.667Z,1.70
2023-01-18T21:01:22.890Z,1.70
2023-01-18T21:03:54.783Z,1.70
2023-01-18T21:06:21.853Z,1.70
2023-01-18T21:08:52.686Z,1.60
2023-01-18T21:11:25.265Z,1.60
2023-01-18T21:13:53.903Z,1.60
2023-01-18T21:16:22.088Z,1.50
2023-01-18T21:18:49.838Z,1.40
2023-01-18T21:21:16.689Z,1.40
2023-01-18T21:23:43.576Z,1.30
2023-01-18T21:26:12.403Z,1.20
2023-01-18T21:28:39.798Z,1.20
2023-01-18T21:31:07.762Z,1.20
2023-01-18T21:33:35.174Z,1.20
2023-01-18T21:36:12.066Z,1.10
2023-01-18T21:38:38.972Z,1.10
2023-01-18T21:41:24.865Z,1.10
2023-01-18T21:44:12.478Z,1.20
2023-01-18T21:46:49.690Z,1.20
2023-01-18T21:49:52.492Z,1.20
2023-01-18T21:52:53.946Z,1.30
2023-01-18T21:55:21.602Z,1.30
2023-01-18T21:58:08.638Z,1.30
2023-01-18T22:00:40.096Z,1.30
2023-01-18T22:03:07.334Z,1.30
2023-01-18T22:05:34.262Z,1.30
2023-01-18T22:08:01.464Z,1.30
2023-01-18T22:10:28.503Z,1.30
2023-01-18T22:12:55.600Z,1.20
2023-01-18T22:15:23.165Z,1.20
2023-01-18T22:17:50.095Z,1.20
2023-01-18T22:20:18.053Z,1.10
2023-01-18T22:22:44.991Z,1.10
2023-01-18T22:25:12.185Z,1.10
2023-01-18T22:27:39.002Z,1.10
2023-01-18T22:30:06.320Z,1.00
2023-01-18T22:32:34.185Z,1.00
2023-01-18T22:35:01.115Z,1.10
2023-01-18T22:37:27.975Z,1.00
2023-01-18T22:39:54.816Z,1.00
2023-01-18T22:42:21.678Z,1.10
2023-01-18T22:44:48.652Z,1.00
2023-01-18T22:47:15.516Z,1.00
2023-01-18T22:49:42.385Z,1.00
2023-01-18T22:52:09.213Z,1.00
2023-01-18T22:54:36.042Z,1.00
2023-01-18T22:57:02.846Z,1.00
2023-01-18T22:59:29.660Z,0.90
2023-01-18T23:01:57.215Z,0.90
2023-01-18T23:04:24.448Z,0.90
2023-01-18T23:06:54.711Z,0.70
2023-01-18T23:09:21.767Z,0.70
2023-01-18T23:11:49.043Z,0.60
2023-01-18T23:14:34.619Z,0.60
2023-01-18T23:17:20.241Z,0.60
2023-01-18T23:19:47.592Z,0.50
2023-01-18T23:22:14.492Z,0.50
2023-01-18T23:24:41.403Z,0.40
2023-01-18T23:27:11.002Z,0.30
2023-01-18T23:29:39.308Z,0.30
2023-01-18T23:32:06.879Z,0.30
2023-01-18T23:34:34.003Z,0.30
2023-01-18T23:37:00.883Z,0.20
2023-01-18T23:39:46.413Z,0.20
2023-01-18T23:42:31.851Z,0.20
2023-01-18T23:45:17.448Z,0.20
2023-01-18T23:48:03.411Z,0.20
2023-01-18T23:50:49.310Z,0.20
2023-01-18T23:53:34.883Z,0.20
2023-01-18T23:56:01.686Z,0.20
2023-01-18T23:58:28.564Z,0.20
